Time;durP1;ratioP1;P1;durP2;ratioP2;P2;SDS_P1;SDS_P2;PMS_P1;PMS_P2;Temp;Humidity;BMP_temperature;BMP_pressure;BME280_temperature;BME280_humidity;BME280_pressure;Samples;Min_cycle;Max_cycle;Signal;HPM_P1;HPM_P2
2022/05/18 00:00:35;;;;;;;16.10;8.25;;;17.80;99.90;;;;;;5116511;28;20019;-81
2022/05/18 00:03:08;;;;;;;12.05;7.00;;;17.80;99.90;;;;;;5112772;28;20028;-81
2022/05/18 00:05:36;;;;;;;10.13;7.28;;;17.80;99.90;;;;;;5113507;28;20024;-81
2022/05/18 00:08:08;;;;;;;11.18;7.03;;;17.80;99.90;;;;;;5102924;28;20459;-81
2022/05/18 00:10:36;;;;;;;8.43;6.70;;;17.80;99.90;;;;;;5109494;28;20114;-82
2022/05/18 00:13:04;;;;;;;10.02;6.20;;;17.80;99.90;;;;;;5112070;28;20391;-81
2022/05/18 00:15:30;;;;;;;11.00;6.68;;;17.70;99.90;;;;;;5116074;28;20016;-81
2022/05/18 00:17:57;;;;;;;8.88;6.55;;;17.70;99.90;;;;;;5099463;28;20082;-81
2022/05/18 00:20:23;;;;;;;7.40;5.35;;;17.60;99.90;;;;;;5115586;28;20487;-81
2022/05/18 00:22:55;;;;;;;10.25;5.97;;;17.50;99.90;;;;;;5105483;28;20031;-81
2022/05/18 00:25:24;;;;;;;6.88;5.80;;;17.50;99.90;;;;;;5105815;28;20027;-81
2022/05/18 00:27:50;;;;;;;5.55;5.05;;;17.40;99.90;;;;;;5115179;28;20024;-81
2022/05/18 00:30:18;;;;;;;8.50;6.20;;;17.40;99.90;;;;;;5114879;28;20027;-81
2022/05/18 00:32:44;;;;;;;7.80;6.18;;;17.30;99.90;;;;;;5109903;28;20337;-81
2022/05/18 00:35:10;;;;;;;8.30;6.28;;;17.30;99.90;;;;;;5097975;28;20085;-81
2022/05/18 00:37:36;;;;;;;7.72;6.15;;;17.20;99.90;;;;;;5108990;28;20092;-81
2022/05/18 00:40:02;;;;;;;7.32;5.32;;;17.20;99.90;;;;;;5111007;28;20028;-81
2022/05/18 00:42:28;;;;;;;14.52;10.38;;;17.20;99.90;;;;;;5112220;28;20512;-80
2022/05/18 00:44:54;;;;;;;11.57;8.43;;;17.20;99.90;;;;;;5115180;28;20479;-81
2022/05/18 00:47:20;;;;;;;14.60;8.27;;;17.10;99.90;;;;;;5110792;28;20046;-81
2022/05/18 00:49:52;;;;;;;9.32;7.55;;;17.10;99.90;;;;;;5114417;28;20110;-81
2022/05/18 00:52:23;;;;;;;11.00;8.55;;;17.00;99.90;;;;;;5098557;28;20028;-81
2022/05/18 00:54:50;;;;;;;11.48;8.32;;;16.90;99.90;;;;;;5110339;28;20123;-81
2022/05/18 00:57:21;;;;;;;16.00;8.18;;;16.90;99.90;;;;;;5104446;28;20058;-81
2022/05/18 00:59:57;;;;;;;13.90;8.93;;;16.80;99.90;;;;;;5090158;28;20118;-81
2022/05/18 01:02:26;;;;;;;8.05;6.63;;;16.80;99.90;;;;;;5113946;28;20060;-81
2022/05/18 01:04:55;;;;;;;12.68;7.60;;;16.80;99.90;;;;;;5113654;28;20040;-81
2022/05/18 01:07:31;;;;;;;10.27;7.45;;;16.70;99.90;;;;;;5113332;28;20035;-80
2022/05/18 01:09:58;;;;;;;8.68;7.57;;;16.70;99.90;;;;;;5095786;28;20047;-81
2022/05/18 01:12:24;;;;;;;8.38;6.82;;;16.70;99.90;;;;;;5100119;28;20024;-81
2022/05/18 01:14:57;;;;;;;12.43;7.75;;;16.60;99.90;;;;;;5107375;28;20126;-81
2022/05/18 01:17:29;;;;;;;9.60;6.57;;;16.60;99.90;;;;;;5113694;28;20067;-81
2022/05/18 01:19:58;;;;;;;9.65;6.20;;;16.60;99.90;;;;;;5113582;28;20032;-81
2022/05/18 01:22:48;;;;;;;8.93;6.65;;;16.60;99.90;;;;;;5113816;28;20068;-81
2022/05/18 01:25:26;;;;;;;9.68;7.35;;;16.60;99.90;;;;;;5103181;28;20020;-81
2022/05/18 01:27:52;;;;;;;7.57;6.78;;;16.60;99.90;;;;;;5092629;28;20395;-81
2022/05/18 01:30:18;;;;;;;10.23;8.40;;;16.60;99.90;;;;;;5111095;28;20084;-81
2022/05/18 01:32:47;;;;;;;10.80;7.85;;;16.60;99.90;;;;;;5096867;28;20031;-81
2022/05/18 01:35:17;;;;;;;10.63;7.30;;;16.60;99.90;;;;;;5110277;28;20100;-81
2022/05/18 01:37:43;;;;;;;9.40;7.00;;;16.50;99.90;;;;;;5112412;28;20115;-81
2022/05/18 01:40:20;;;;;;;11.95;7.32;;;16.50;99.90;;;;;;5112744;28;20019;-81
2022/05/18 01:42:52;;;;;;;12.77;7.15;;;16.50;99.90;;;;;;5110480;28;20104;-81
2022/05/18 01:45:19;;;;;;;6.57;5.82;;;16.50;99.90;;;;;;5093925;28;20024;-81
2022/05/18 01:47:48;;;;;;;6.80;5.13;;;16.50;99.90;;;;;;5097946;28;20032;-81
2022/05/18 01:50:19;;;;;;;9.18;6.35;;;16.50;99.90;;;;;;5108930;28;20038;-81
2022/05/18 01:52:44;;;;;;;7.78;5.75;;;16.50;99.90;;;;;;5113234;28;20024;-81
2022/05/18 01:55:10;;;;;;;8.70;6.95;;;16.40;99.90;;;;;;5111872;28;20036;-81
2022/05/18 01:57:36;;;;;;;12.50;7.57;;;16.50;99.90;;;;;;5088594;28;20523;-81
2022/05/18 02:00:06;;;;;;;10.07;7.55;;;16.50;99.90;;;;;;5106461;28;20031;-81
2022/05/18 02:02:31;;;;;;;8.38;6.90;;;16.40;99.90;;;;;;5110648;28;20027;-81
2022/05/18 02:04:57;;;;;;;10.35;6.20;;;16.40;99.90;;;;;;5096368;28;20480;-81
2022/05/18 02:07:23;;;;;;;9.30;6.40;;;16.40;99.90;;;;;;5113773;28;20103;-81
2022/05/18 02:09:49;;;;;;;8.20;6.75;;;16.30;99.90;;;;;;5112220;28;20472;-81
2022/05/18 02:12:15;;;;;;;11.65;8.40;;;16.40;99.90;;;;;;5113628;28;20031;-81
2022/05/18 02:14:41;;;;;;;9.90;7.30;;;16.40;99.90;;;;;;5110430;28;20043;-81
2022/05/18 02:17:06;;;;;;;12.90;8.35;;;16.30;99.90;;;;;;5103874;28;20648;-81
2022/05/18 02:19:32;;;;;;;8.55;6.15;;;16.30;99.90;;;;;;5113148;28;20031;-81
2022/05/18 02:22:00;;;;;;;13.88;7.97;;;16.30;99.90;;;;;;5094289;28;20448;-81
2022/05/18 02:24:26;;;;;;;10.50;6.95;;;16.30;99.90;;;;;;5112372;28;20035;-81
2022/05/18 02:26:51;;;;;;;10.13;7.57;;;16.20;99.90;;;;;;5112571;28;20085;-81
2022/05/18 02:29:17;;;;;;;15.98;6.75;;;16.30;99.90;;;;;;5093066;28;20062;-81
2022/05/18 02:31:42;;;;;;;10.38;6.57;;;16.20;99.90;;;;;;5094124;28;20055;-81
2022/05/18 02:34:08;;;;;;;9.50;7.03;;;16.20;99.90;;;;;;5098226;28;20051;-81
2022/05/18 02:36:34;;;;;;;12.10;7.65;;;16.20;99.90;;;;;;5093005;28;20032;-81
2022/05/18 02:38:59;;;;;;;13.88;8.18;;;16.20;99.90;;;;;;5100860;28;20094;-81
2022/05/18 02:41:25;;;;;;;14.80;8.27;;;16.10;99.90;;;;;;5094663;28;20047;-81
2022/05/18 02:43:52;;;;;;;11.20;8.43;;;16.10;99.90;;;;;;5108984;28;20475;-81
2022/05/18 02:46:21;;;;;;;8.80;7.72;;;16.00;99.90;;;;;;5112402;28;20047;-81
2022/05/18 02:48:47;;;;;;;10.05;8.65;;;16.00;99.90;;;;;;5110773;28;20133;-81
2022/05/18 02:51:15;;;;;;;17.30;11.43;;;16.00;99.90;;;;;;5111370;28;20035;-81
2022/05/18 02:53:40;;;;;;;16.42;11.57;;;16.00;99.90;;;;;;5095103;28;20384;-81
2022/05/18 02:56:10;;;;;;;14.80;11.23;;;16.00;99.90;;;;;;5113284;28;20079;-81
2022/05/18 02:58:50;;;;;;;16.02;11.10;;;16.00;99.90;;;;;;5091844;28;20087;-81
2022/05/18 03:01:19;;;;;;;16.40;12.35;;;16.00;99.90;;;;;;5109974;28;20513;-81
2022/05/18 03:03:45;;;;;;;13.30;10.88;;;16.00;99.90;;;;;;5112046;28;20028;-81
2022/05/18 03:06:14;;;;;;;18.08;11.75;;;16.00;99.90;;;;;;5112114;28;20099;-81
2022/05/18 03:08:41;;;;;;;11.32;9.77;;;16.00;99.90;;;;;;5111573;28;20028;-81
2022/05/18 03:11:09;;;;;;;12.80;10.13;;;16.00;99.90;;;;;;5110843;28;20379;-81
2022/05/18 03:13:35;;;;;;;9.73;7.65;;;16.00;99.90;;;;;;5108281;28;20085;-81
2022/05/18 03:16:02;;;;;;;14.48;10.65;;;16.00;99.90;;;;;;5093820;28;20034;-81
2022/05/18 03:18:27;;;;;;;19.20;13.02;;;16.00;99.90;;;;;;5092625;28;20032;-81
2022/05/18 03:23:38;;;;;;;14.82;11.38;;;16.10;99.90;;;;;;5109703;28;20027;-81
2022/05/18 03:26:06;;;;;;;13.23;11.65;;;16.10;99.90;;;;;;5112233;28;20028;-81
2022/05/18 03:28:32;;;;;;;24.17;12.88;;;16.10;99.90;;;;;;5093660;28;20437;-81
2022/05/18 03:30:58;;;;;;;19.45;12.52;;;16.10;99.90;;;;;;5108685;28;20028;-80
2022/05/18 03:33:24;;;;;;;21.17;14.82;;;16.20;99.90;;;;;;5105447;28;20039;-81
2022/05/18 03:35:51;;;;;;;18.77;14.07;;;16.20;99.90;;;;;;5108752;28;20026;-81
2022/05/18 03:38:20;;;;;;;26.40;18.00;;;16.30;99.90;;;;;;5104010;28;20051;-81
2022/05/18 03:40:47;;;;;;;25.08;15.48;;;16.30;99.90;;;;;;5117697;28;20528;-81
2022/05/18 03:43:13;;;;;;;16.05;12.48;;;16.40;99.90;;;;;;5089643;28;20031;-80
2022/05/18 03:45:39;;;;;;;26.27;16.83;;;16.50;99.90;;;;;;5110125;28;20026;-80
2022/05/18 03:48:06;;;;;;;23.27;15.95;;;16.60;99.90;;;;;;5116238;28;20019;-80
2022/05/18 03:50:32;;;;;;;23.02;15.98;;;16.60;99.90;;;;;;5112372;28;20035;-80
2022/05/18 03:52:58;;;;;;;20.40;16.27;;;16.70;99.90;;;;;;5089994;28;20027;-80
2022/05/18 03:55:25;;;;;;;23.73;13.93;;;16.70;99.90;;;;;;5114948;28;20031;-80
2022/05/18 03:57:52;;;;;;;16.77;12.93;;;16.70;99.90;;;;;;5102872;28;20058;-80
2022/05/18 04:00:18;;;;;;;18.52;15.20;;;16.70;99.90;;;;;;5107052;28;20348;-80
2022/05/18 04:02:47;;;;;;;21.90;14.45;;;16.70;99.90;;;;;;5109348;28;20797;-80
2022/05/18 04:05:14;;;;;;;20.35;15.23;;;16.70;99.90;;;;;;5093662;28;20406;-80
2022/05/18 04:07:43;;;;;;;17.77;13.20;;;16.70;99.90;;;;;;5108353;28;20038;-80
2022/05/18 04:10:09;;;;;;;18.27;14.55;;;16.70;99.90;;;;;;5111310;28;20024;-80
2022/05/18 04:12:35;;;;;;;16.48;10.73;;;16.80;99.90;;;;;;5124476;27;20023;-80
2022/05/18 04:15:02;;;;;;;19.60;14.60;;;16.80;99.90;;;;;;5132527;27;20079;-80
2022/05/18 04:17:28;;;;;;;20.02;12.30;;;16.80;99.90;;;;;;5112840;27;20494;-80
2022/05/18 04:19:55;;;;;;;21.98;12.63;;;16.80;99.90;;;;;;5099181;28;20047;-80
2022/05/18 04:22:23;;;;;;;15.63;10.88;;;16.90;99.90;;;;;;5111381;28;20032;-80
2022/05/18 04:24:50;;;;;;;11.13;9.07;;;16.90;99.90;;;;;;5093402;28;20023;-80
2022/05/18 04:27:16;;;;;;;9.70;8.10;;;16.90;99.90;;;;;;5111379;28;20063;-80
2022/05/18 04:29:42;;;;;;;14.20;9.77;;;16.90;99.90;;;;;;5102108;28;20067;-81
2022/05/18 04:32:08;;;;;;;12.15;9.38;;;16.90;99.90;;;;;;5114158;27;20031;-80
2022/05/18 04:34:35;;;;;;;13.30;8.98;;;16.90;99.90;;;;;;5115452;27;20118;-80
2022/05/18 04:37:00;;;;;;;15.52;12.15;;;16.90;99.90;;;;;;5112316;27;20418;-81
2022/05/18 04:39:26;;;;;;;16.05;12.15;;;16.90;99.90;;;;;;5095435;28;20072;-80
2022/05/18 04:41:51;;;;;;;19.08;12.65;;;16.90;99.90;;;;;;5109295;27;20032;-81
2022/05/18 04:44:17;;;;;;;18.27;12.68;;;16.90;99.90;;;;;;5095013;27;20028;-80
2022/05/18 04:46:43;;;;;;;18.80;12.40;;;16.90;99.90;;;;;;5109001;27;20020;-80
2022/05/18 04:49:13;;;;;;;13.68;10.20;;;16.90;99.90;;;;;;5077706;28;20032;-80
2022/05/18 04:51:39;;;;;;;18.45;11.43;;;17.00;99.90;;;;;;5105035;28;20024;-80
2022/05/18 04:54:05;;;;;;;21.52;11.68;;;17.00;99.90;;;;;;5104715;28;20162;-80
2022/05/18 04:56:30;;;;;;;18.33;12.68;;;17.10;99.90;;;;;;5105113;28;20546;-80
2022/05/18 04:58:56;;;;;;;19.15;11.75;;;17.10;99.90;;;;;;5094576;28;20035;-80
2022/05/18 05:01:25;;;;;;;15.63;8.45;;;17.20;99.90;;;;;;5105018;28;20034;-82
2022/05/18 05:03:51;;;;;;;18.92;10.65;;;17.20;99.90;;;;;;5107625;28;20240;-81
2022/05/18 05:06:17;;;;;;;22.20;12.45;;;17.20;99.90;;;;;;5103770;28;20115;-81
2022/05/18 05:08:42;;;;;;;17.95;10.35;;;17.20;99.90;;;;;;5113865;28;20035;-81
2022/05/18 05:11:10;;;;;;;13.48;9.77;;;17.30;99.90;;;;;;5094880;28;20024;-82
2022/05/18 05:13:36;;;;;;;21.20;11.70;;;17.40;99.90;;;;;;5106636;28;20031;-82
2022/05/18 05:16:08;;;;;;;18.90;9.98;;;17.40;99.90;;;;;;5108616;28;20066;-82
2022/05/18 05:18:35;;;;;;;13.82;10.38;;;17.40;99.90;;;;;;5100337;28;20050;-82
2022/05/18 05:21:01;;;;;;;15.77;12.68;;;17.40;99.90;;;;;;5114071;28;20028;-81
2022/05/18 05:23:27;;;;;;;19.95;12.52;;;17.50;99.90;;;;;;5113749;28;20024;-82
2022/05/18 05:25:55;;;;;;;14.10;9.57;;;17.50;99.90;;;;;;5114107;28;20379;-82
2022/05/18 05:28:20;;;;;;;19.75;10.65;;;17.50;99.90;;;;;;5112335;28;20024;-81
2022/05/18 05:30:46;;;;;;;21.00;12.50;;;17.50;99.90;;;;;;5112350;28;20081;-82
2022/05/18 05:33:12;;;;;;;16.25;11.27;;;17.50;99.90;;;;;;5112456;28;20027;-81
2022/05/18 05:35:42;;;;;;;19.10;12.70;;;17.60;99.90;;;;;;5091648;28;20111;-81
2022/05/18 05:38:11;;;;;;;22.20;13.40;;;17.60;99.90;;;;;;5113338;28;20036;-82
2022/05/18 05:40:39;;;;;;;18.42;10.25;;;17.60;99.90;;;;;;5113750;28;20028;-82
2022/05/18 05:43:09;;;;;;;22.70;14.05;;;17.70;99.90;;;;;;5113199;28;20050;-81
2022/05/18 05:45:37;;;;;;;16.50;10.38;;;17.70;99.90;;;;;;5126121;27;20043;-81
2022/05/18 05:48:04;;;;;;;20.25;11.88;;;17.70;99.90;;;;;;5124611;27;20443;-81
2022/05/18 05:50:32;;;;;;;18.25;12.43;;;17.80;99.90;;;;;;5113078;28;20615;-81
2022/05/18 05:52:58;;;;;;;18.05;11.38;;;17.90;99.90;;;;;;5112670;28;20031;-81
2022/05/18 05:55:25;;;;;;;19.25;11.68;;;18.00;99.90;;;;;;5076844;28;20031;-82
2022/05/18 05:57:53;;;;;;;14.25;9.73;;;18.00;99.90;;;;;;5084158;28;20028;-82
2022/05/18 06:00:19;;;;;;;18.27;10.30;;;18.10;99.90;;;;;;5085810;28;20024;-81
2022/05/18 06:02:44;;;;;;;12.90;8.25;;;18.10;99.90;;;;;;5095341;28;20156;-82
2022/05/18 06:05:10;;;;;;;14.38;10.82;;;18.10;99.90;;;;;;5112824;28;20035;-81
2022/05/18 06:07:36;;;;;;;17.83;10.65;;;18.10;99.90;;;;;;5089686;28;20027;-81
2022/05/18 06:10:02;;;;;;;12.77;8.07;;;18.20;99.90;;;;;;5105718;28;20032;-81
2022/05/18 06:12:28;;;;;;;13.27;9.52;;;18.20;99.90;;;;;;5112456;28;20028;-81
2022/05/18 06:14:53;;;;;;;8.50;6.60;;;18.20;99.90;;;;;;5111460;28;20051;-82
2022/05/18 06:17:19;;;;;;;9.27;6.97;;;18.20;99.90;;;;;;5109834;28;20075;-82
2022/05/18 06:19:45;;;;;;;14.10;7.50;;;18.20;99.90;;;;;;5110981;28;20030;-82
2022/05/18 06:22:10;;;;;;;14.98;10.25;;;18.30;99.90;;;;;;5100220;28;20109;-81
2022/05/18 06:24:36;;;;;;;16.25;8.73;;;18.30;99.90;;;;;;5093605;28;20023;-81
2022/05/18 06:27:02;;;;;;;15.85;7.72;;;18.40;99.90;;;;;;5113374;28;20028;-82
2022/05/18 06:29:30;;;;;;;17.50;8.07;;;18.50;99.90;;;;;;5094978;28;20459;-82
2022/05/18 06:31:56;;;;;;;19.67;8.68;;;18.50;99.90;;;;;;5082823;28;20391;-81
2022/05/18 06:34:22;;;;;;;14.00;8.80;;;18.60;99.90;;;;;;5112019;28;20034;-82
2022/05/18 06:36:49;;;;;;;17.85;9.57;;;18.60;99.90;;;;;;5092893;28;20032;-81
2022/05/18 06:39:18;;;;;;;15.13;9.60;;;18.70;99.90;;;;;;5101185;28;20110;-81
2022/05/18 06:41:44;;;;;;;17.67;10.48;;;18.80;99.90;;;;;;5093188;28;20024;-81
2022/05/18 06:44:10;;;;;;;17.38;10.20;;;18.90;99.90;;;;;;5092806;28;20392;-81
2022/05/18 06:46:37;;;;;;;22.08;11.57;;;19.00;99.90;;;;;;5092788;28;20032;-81
2022/05/18 06:49:04;;;;;;;21.77;9.98;;;19.10;99.90;;;;;;5093098;28;20020;-82
2022/05/18 06:51:34;;;;;;;19.08;9.70;;;19.10;99.90;;;;;;5092996;28;20024;-81
2022/05/18 06:54:00;;;;;;;17.92;8.48;;;19.20;99.90;;;;;;5092574;28;20032;-81
2022/05/18 06:56:28;;;;;;;15.85;8.13;;;19.20;99.90;;;;;;5074525;28;20181;-81
2022/05/18 06:58:55;;;;;;;15.73;7.75;;;19.30;99.90;;;;;;5092623;28;20028;-81
2022/05/18 07:01:22;;;;;;;17.95;9.00;;;19.30;99.90;;;;;;5074684;28;20038;-81
2022/05/18 07:03:48;;;;;;;18.02;8.00;;;19.40;99.90;;;;;;5092449;28;20032;-81
2022/05/18 07:06:16;;;;;;;14.57;6.75;;;19.40;99.90;;;;;;5092730;28;20016;-82
2022/05/18 07:08:42;;;;;;;13.48;6.60;;;19.40;99.90;;;;;;5092453;28;20074;-81
2022/05/18 07:11:08;;;;;;;13.80;5.90;;;19.50;99.90;;;;;;5092772;28;20104;-81
2022/05/18 07:13:35;;;;;;;12.73;6.43;;;19.50;99.90;;;;;;5074430;28;20028;-81
2022/05/18 07:16:02;;;;;;;9.60;4.68;;;19.50;99.90;;;;;;5074710;28;20024;-81
2022/05/18 07:18:29;;;;;;;10.45;4.40;;;19.60;99.90;;;;;;5092458;28;20027;-81
2022/05/18 07:20:59;;;;;;;7.30;5.43;;;19.70;99.90;;;;;;5092440;28;20514;-81
2022/05/18 07:23:25;;;;;;;18.45;5.15;;;19.70;99.90;;;;;;5092223;28;20415;-81
2022/05/18 07:25:53;;;;;;;12.95;4.80;;;19.80;99.90;;;;;;5074403;28;20028;-81
2022/05/18 07:28:19;;;;;;;11.10;4.65;;;19.90;99.90;;;;;;5074281;28;20030;-82
2022/05/18 07:30:46;;;;;;;8.05;4.35;;;20.00;99.90;;;;;;5092475;28;20457;-81
2022/05/18 07:33:11;;;;;;;11.73;4.40;;;20.00;99.90;;;;;;5073949;28;20132;-81
2022/05/18 07:35:37;;;;;;;6.47;4.57;;;20.00;99.90;;;;;;5095528;28;20055;-81
2022/05/18 07:38:03;;;;;;;11.15;3.95;;;20.00;99.90;;;;;;5096033;28;20032;-82
2022/05/18 07:40:29;;;;;;;12.55;4.20;;;20.10;99.90;;;;;;5096345;28;20020;-81
2022/05/18 07:42:56;;;;;;;9.55;3.80;;;20.20;99.90;;;;;;5096362;28;20059;-81
2022/05/18 07:45:25;;;;;;;6.25;3.78;;;20.20;99.90;;;;;;5096550;28;20020;-82
2022/05/18 07:47:52;;;;;;;8.18;3.65;;;20.20;99.90;;;;;;5096032;28;20796;-81
2022/05/18 07:50:23;;;;;;;7.90;4.38;;;20.20;99.90;;;;;;5096226;28;20025;-82
2022/05/18 07:52:49;;;;;;;9.68;3.97;;;20.30;99.90;;;;;;5095883;28;20020;-82
2022/05/18 07:55:14;;;;;;;14.32;4.13;;;20.30;99.90;;;;;;5096019;28;20130;-81
2022/05/18 07:57:40;;;;;;;7.80;3.80;;;20.30;99.90;;;;;;5096063;28;20020;-81
2022/05/18 08:00:08;;;;;;;8.98;4.40;;;20.30;99.90;;;;;;5096174;28;20481;-82
2022/05/18 08:02:34;;;;;;;7.07;3.75;;;20.30;99.90;;;;;;5077691;28;20483;-81
2022/05/18 08:04:59;;;;;;;5.03;3.38;;;20.30;99.90;;;;;;5095797;28;20032;-81
2022/05/18 08:07:26;;;;;;;8.50;4.05;;;20.30;99.90;;;;;;5095497;28;20036;-80
2022/05/18 08:15:22;;;;;;;8.45;3.92;;;20.50;99.90;;;;;;5110554;28;20117;-81
2022/05/18 08:17:48;;;;;;;9.07;3.60;;;20.50;99.90;;;;;;5096223;28;20169;-81
2022/05/18 08:20:16;;;;;;;7.40;3.80;;;20.60;99.90;;;;;;5111751;28;20055;-80
2022/05/18 08:22:43;;;;;;;9.68;3.92;;;20.70;99.90;;;;;;5110279;28;20124;-81
2022/05/18 08:25:09;;;;;;;7.20;4.00;;;20.80;99.90;;;;;;5094978;28;20020;-81
2022/05/18 08:27:42;;;;;;;6.25;3.08;;;20.90;99.90;;;;;;5112140;28;20040;-81
2022/05/18 08:30:11;;;;;;;6.25;3.40;;;21.00;99.90;;;;;;5096366;28;20031;-80
2022/05/18 08:32:37;;;;;;;5.88;2.85;;;21.00;99.90;;;;;;5095724;28;20028;-81
2022/05/18 08:35:03;;;;;;;7.13;3.35;;;21.10;99.90;;;;;;5104393;28;20032;-81
2022/05/18 08:37:29;;;;;;;6.13;2.80;;;21.20;99.90;;;;;;5110591;28;20028;-81
2022/05/18 08:39:55;;;;;;;7.07;3.40;;;21.30;99.90;;;;;;5094685;28;20034;-81
2022/05/18 08:42:20;;;;;;;10.18;3.38;;;21.30;99.90;;;;;;5113993;28;20077;-81
2022/05/18 08:44:47;;;;;;;6.22;2.97;;;21.40;99.90;;;;;;5097119;28;20410;-81
2022/05/18 08:47:13;;;;;;;8.73;3.25;;;21.50;99.90;;;;;;5094228;28;20060;-82
2022/05/18 08:49:56;;;;;;;5.70;2.72;;;21.60;99.90;;;;;;5115143;28;20487;-81
2022/05/18 08:52:59;;;;;;;7.40;2.65;;;21.70;99.90;;;;;;5112107;28;20027;-81
2022/05/18 08:55:35;;;;;;;6.78;2.17;;;21.80;99.90;;;;;;5113440;28;20371;-81
2022/05/18 08:58:02;;;;;;;13.88;2.88;;;21.80;99.90;;;;;;5112334;28;20027;-80
2022/05/18 09:00:38;;;;;;;6.03;2.35;;;22.00;99.90;;;;;;5113621;28;20372;-81
2022/05/18 09:03:11;;;;;;;4.53;2.20;;;22.00;99.90;;;;;;5113870;28;20548;-80
2022/05/18 09:05:52;;;;;;;5.88;2.72;;;21.90;99.90;;;;;;5097668;28;20029;-81
2022/05/18 09:08:31;;;;;;;8.02;2.72;;;21.90;99.90;;;;;;5077586;28;20035;-80
2022/05/18 09:11:12;;;;;;;14.20;10.60;;;21.90;99.90;;;;;;5093531;28;20499;-82
2022/05/18 09:13:38;;;;;;;9.65;3.00;;;21.90;99.90;;;;;;5112954;28;20035;-80
2022/05/18 09:16:24;;;;;;;12.77;2.72;;;21.90;99.90;;;;;;5105944;28;20030;-80
2022/05/18 09:19:05;;;;;;;6.15;2.90;;;21.90;99.90;;;;;;5086881;28;20046;-80
2022/05/18 09:21:49;;;;;;;7.97;2.78;;;21.90;99.90;;;;;;5113637;28;20042;-81
2022/05/18 09:24:23;;;;;;;4.72;2.85;;;22.00;99.90;;;;;;5114233;28;20084;-80
2022/05/18 09:27:08;;;;;;;7.45;2.58;;;22.10;99.90;;;;;;5114410;28;20020;-81
2022/05/18 09:29:46;;;;;;;17.45;2.92;;;22.10;99.90;;;;;;5113733;28;20020;-81
2022/05/18 09:32:22;;;;;;;10.07;3.05;;;22.20;99.90;;;;;;5098037;28;20094;-81
2022/05/18 09:34:58;;;;;;;8.63;3.10;;;22.20;99.90;;;;;;5115055;27;20521;-81
2022/05/18 09:37:29;;;;;;;4.50;2.58;;;22.30;99.90;;;;;;5112663;28;20034;-81
2022/05/18 09:40:09;;;;;;;12.15;2.50;;;22.40;99.90;;;;;;5111999;28;20024;-81
2022/05/18 09:42:39;;;;;;;5.45;2.38;;;22.50;99.90;;;;;;5094613;28;20132;-81
2022/05/18 09:45:15;;;;;;;7.10;2.60;;;22.50;99.90;;;;;;5094421;28;20085;-81
2022/05/18 09:47:50;;;;;;;7.50;3.08;;;22.50;99.90;;;;;;5113303;28;20043;-81
2022/05/18 09:50:15;;;;;;;13.63;3.10;;;22.70;99.90;;;;;;5074961;28;20042;-81
2022/05/18 09:52:45;;;;;;;10.93;2.55;;;22.70;99.90;;;;;;5094827;28;20118;-81
2022/05/18 09:55:14;;;;;;;16.25;3.10;;;22.70;99.90;;;;;;5093371;28;20046;-81
2022/05/18 09:57:47;;;;;;;6.55;2.70;;;22.80;99.90;;;;;;5113595;28;20472;-81
2022/05/18 10:00:18;;;;;;;7.93;2.58;;;22.80;99.90;;;;;;5110925;28;20031;-81
2022/05/18 10:08:31;;;;;;;3.72;2.20;;;23.10;99.90;;;;;;5111798;28;20059;-82
2022/05/18 10:11:07;;;;;;;17.52;4.80;;;23.20;99.90;;;;;;5094998;28;20422;-82
2022/05/18 10:13:41;;;;;;;9.65;2.78;;;23.30;99.90;;;;;;5113556;28;20208;-82
2022/05/18 10:16:17;;;;;;;6.05;2.70;;;23.30;99.90;;;;;;5113827;28;20427;-83
2022/05/18 10:18:48;;;;;;;7.50;2.67;;;23.40;99.90;;;;;;5113492;28;20034;-82
2022/05/18 10:21:18;;;;;;;4.40;2.63;;;23.50;99.90;;;;;;5113269;28;20019;-82
2022/05/18 10:24:01;;;;;;;6.30;2.70;;;23.50;99.90;;;;;;5113366;28;20019;-83
2022/05/18 10:26:35;;;;;;;4.70;2.33;;;23.60;99.90;;;;;;5113680;28;20015;-82
2022/05/18 10:29:12;;;;;;;9.13;2.35;;;23.70;99.90;;;;;;5113606;28;20077;-82
2022/05/18 10:31:46;;;;;;;6.32;3.03;;;23.70;99.90;;;;;;5113484;28;20031;-82
2022/05/18 10:34:28;;;;;;;5.05;2.55;;;23.80;99.90;;;;;;5113544;28;20042;-82
2022/05/18 10:36:56;;;;;;;10.40;2.70;;;23.80;99.90;;;;;;5113031;28;20100;-82
2022/05/18 10:40:18;;;;;;;4.70;2.28;;;23.90;99.90;;;;;;5113298;28;20061;-82
2022/05/18 10:42:55;;;;;;;5.60;2.45;;;24.00;99.90;;;;;;5009989;28;20041;-82
2022/05/18 10:45:33;;;;;;;9.57;3.33;;;24.00;99.90;;;;;;5113099;28;20034;-82
2022/05/18 10:48:18;;;;;;;4.53;2.25;;;24.20;99.90;;;;;;5113342;28;20031;-82
2022/05/18 10:50:46;;;;;;;5.97;2.60;;;24.20;99.90;;;;;;5094904;28;20026;-82
2022/05/18 10:53:17;;;;;;;7.25;2.30;;;24.30;99.90;;;;;;5112518;28;20024;-81
2022/05/18 10:56:03;;;;;;;8.13;2.38;;;24.40;99.90;;;;;;5113112;28;20024;-82
2022/05/18 10:58:45;;;;;;;5.55;2.72;;;24.40;99.90;;;;;;5113027;28;20358;-82
2022/05/18 11:01:25;;;;;;;9.85;2.58;;;24.50;99.90;;;;;;5113103;28;20054;-83
2022/05/18 11:03:57;;;;;;;6.68;2.80;;;24.50;99.90;;;;;;5094205;28;20082;-82
2022/05/18 11:06:37;;;;;;;6.80;2.88;;;24.50;99.90;;;;;;5094454;28;20090;-83
2022/05/18 11:09:29;;;;;;;4.25;2.13;;;24.60;99.90;;;;;;5113678;28;20031;-83
2022/05/18 11:12:00;;;;;;;5.30;2.25;;;24.60;99.90;;;;;;5116672;28;20027;-83
2022/05/18 11:14:32;;;;;;;4.63;2.33;;;24.60;99.90;;;;;;5116909;28;20493;-83
2022/05/18 11:17:20;;;;;;;5.80;2.53;;;24.70;99.90;;;;;;5116763;28;20034;-83
2022/05/18 11:20:11;;;;;;;8.95;2.95;;;24.60;99.90;;;;;;5066626;28;20031;-81
2022/05/18 11:22:58;;;;;;;11.60;2.83;;;24.60;99.90;;;;;;5098529;28;20019;-82
2022/05/18 11:25:47;;;;;;;8.20;2.25;;;24.60;99.90;;;;;;5099007;28;20020;-82
2022/05/18 11:28:33;;;;;;;8.20;2.58;;;24.60;99.90;;;;;;5098493;28;20023;-83
2022/05/18 11:31:25;;;;;;;4.82;2.10;;;24.60;99.90;;;;;;5115202;27;20090;-82
2022/05/18 11:34:21;;;;;;;5.22;2.60;;;24.50;99.90;;;;;;5099541;27;20031;-82
2022/05/18 11:37:06;;;;;;;4.97;2.33;;;24.40;99.90;;;;;;5112837;28;20451;-82
2022/05/18 11:39:53;;;;;;;6.88;2.60;;;24.30;99.90;;;;;;5114288;28;20045;-83
2022/05/18 11:42:37;;;;;;;9.93;2.65;;;24.30;99.90;;;;;;5116217;28;20020;-83
2022/05/18 11:45:26;;;;;;;5.40;2.28;;;24.40;99.90;;;;;;5110969;28;20026;-84
2022/05/18 11:48:02;;;;;;;13.77;2.42;;;24.50;99.90;;;;;;5115658;28;20077;-82
2022/05/18 11:50:40;;;;;;;6.72;2.63;;;24.60;99.90;;;;;;5098167;28;20035;-82
2022/05/18 11:53:26;;;;;;;3.30;2.13;;;24.50;99.90;;;;;;5116318;28;20022;-82
2022/05/18 11:56:33;;;;;;;8.02;2.88;;;24.40;99.90;;;;;;5106254;28;20417;-82
2022/05/18 11:59:29;;;;;;;6.18;2.65;;;24.30;99.90;;;;;;5096935;28;20039;-82
2022/05/18 12:02:14;;;;;;;6.05;2.45;;;24.20;99.90;;;;;;5096229;28;20477;-82
2022/05/18 12:05:15;;;;;;;7.25;2.90;;;24.10;99.90;;;;;;5077849;28;20075;-82
2022/05/18 12:08:02;;;;;;;8.95;2.97;;;24.10;99.90;;;;;;5092045;28;20118;-83
2022/05/18 12:10:47;;;;;;;7.32;2.90;;;24.20;99.90;;;;;;5116193;28;20028;-81
2022/05/18 12:13:31;;;;;;;5.18;2.22;;;24.40;99.90;;;;;;5110904;28;20151;-82
2022/05/18 12:16:16;;;;;;;9.80;2.95;;;24.50;99.90;;;;;;5113391;28;20031;-80
2022/05/18 12:18:50;;;;;;;3.75;2.20;;;24.60;99.90;;;;;;5113411;28;20028;-81
2022/05/18 12:21:27;;;;;;;5.47;2.88;;;24.60;99.90;;;;;;5111701;28;20039;-81
2022/05/18 12:24:01;;;;;;;5.20;2.35;;;24.50;99.90;;;;;;5110398;27;20016;-81
2022/05/18 12:26:29;;;;;;;6.32;2.33;;;24.50;99.90;;;;;;5112446;28;20036;-81
2022/05/18 12:28:55;;;;;;;6.30;3.28;;;24.40;99.90;;;;;;5115146;27;20027;-81
2022/05/18 12:31:22;;;;;;;4.60;2.42;;;24.40;99.90;;;;;;5104889;28;20039;-81
2022/05/18 12:33:59;;;;;;;7.50;3.03;;;24.20;99.90;;;;;;5110093;28;20020;-81
2022/05/18 12:36:34;;;;;;;7.53;3.08;;;24.30;99.90;;;;;;5086269;28;20027;-81
2022/05/18 12:39:08;;;;;;;6.07;2.47;;;24.30;99.90;;;;;;5097579;28;20039;-81
2022/05/18 12:41:40;;;;;;;7.57;2.90;;;24.20;99.90;;;;;;5110098;28;20020;-82
2022/05/18 12:44:10;;;;;;;8.60;2.83;;;24.20;99.90;;;;;;5109803;28;20039;-81
2022/05/18 12:46:51;;;;;;;8.65;2.28;;;24.20;99.90;;;;;;5089653;28;20450;-81
2022/05/18 12:49:28;;;;;;;6.57;2.47;;;24.20;99.90;;;;;;5091751;28;20177;-81
2022/05/18 12:52:02;;;;;;;8.15;2.38;;;24.20;99.90;;;;;;5103434;28;20576;-83
2022/05/18 12:54:54;;;;;;;6.10;3.05;;;24.20;99.90;;;;;;5112839;28;20036;-83
2022/05/18 12:57:40;;;;;;;8.13;3.00;;;24.20;99.90;;;;;;5097611;28;20071;-82
2022/05/18 13:00:39;;;;;;;4.97;2.92;;;24.10;99.90;;;;;;5104273;27;20053;-81
2022/05/18 13:03:09;;;;;;;8.25;2.67;;;24.20;99.90;;;;;;5101091;28;20060;-82
2022/05/18 13:05:41;;;;;;;13.48;2.53;;;24.20;99.90;;;;;;5111257;28;20023;-82
2022/05/18 13:08:17;;;;;;;2.70;2.40;;;24.10;99.90;;;;;;5089522;28;20034;-81
2022/05/18 13:11:07;;;;;;;6.05;2.63;;;24.10;99.90;;;;;;5110420;28;20054;-82